sensor_id;sensor_type;location;lat;lon;timestamp;temperature;humidity
14411;DHT22;7290;50.854;4.354;2022-12-01T00:01:49;8.50;99.90
14411;DHT22;7290;50.854;4.354;2022-12-01T00:04:15;8.30;99.90
14411;DHT22;7290;50.854;4.354;2022-12-01T00:06:41;8.40;99.90
14411;DHT22;7290;50.854;4.354;2022-12-01T00:09:08;8.20;99.90
14411;DHT22;7290;50.854;4.354;2022-12-01T00:11:53;8.10;99.90
14411;DHT22;7290;50.854;4.354;2022-12-01T00:14:19;8.10;99.90
14411;DHT22;7290;50.854;4.354;2022-12-01T00:16:46;8.10;99.90
14411;DHT22;7290;50.854;4.354;2022-12-01T00:19:12;7.80;99.90
14411;DHT22;7290;50.854;4.354;2022-12-01T00:21:38;7.70;99.90
14411;DHT22;7290;50.854;4.354;2022-12-01T00:24:09;7.80;99.90
14411;DHT22;7290;50.854;4.354;2022-12-01T00:26:37;7.90;99.90
14411;DHT22;7290;50.854;4.354;2022-12-01T00:29:03;8.10;99.90
14411;DHT22;7290;50.854;4.354;2022-12-01T00:31:29;8.10;99.90
14411;DHT22;7290;50.854;4.354;2022-12-01T00:33:55;8.10;99.90
14411;DHT22;7290;50.854;4.354;2022-12-01T00:36:22;8.10;99.90
14411;DHT22;7290;50.854;4.354;2022-12-01T00:38:51;8.20;99.90
14411;DHT22;7290;50.854;4.354;2022-12-01T00:41:17;8.30;99.90
14411;DHT22;7290;50.854;4.354;2022-12-01T00:43:43;8.30;99.90
14411;DHT22;7290;50.854;4.354;2022-12-01T00:46:09;8.30;99.90
14411;DHT22;7290;50.854;4.354;2022-12-01T00:48:36;8.30;99.90
14411;DHT22;7290;50.854;4.354;2022-12-01T00:51:02;8.30;99.90
14411;DHT22;7290;50.854;4.354;2022-12-01T00:53:29;8.40;99.90
14411;DHT22;7290;50.854;4.354;2022-12-01T00:55:55;8.30;99.90
14411;DHT22;7290;50.854;4.354;2022-12-01T00:58:22;8.00;99.90
14411;DHT22;7290;50.854;4.354;2022-12-01T01:00:55;8.10;99.90
14411;DHT22;7290;50.854;4.354;2022-12-01T01:03:22;8.20;99.90
14411;DHT22;7290;50.854;4.354;2022-12-01T01:05:48;8.20;99.90
14411;DHT22;7290;50.854;4.354;2022-12-01T01:08:15;8.30;99.90
14411;DHT22;7290;50.854;4.354;2022-12-01T01:10:42;8.30;99.90
14411;DHT22;7290;50.854;4.354;2022-12-01T01:13:09;8.20;99.90
14411;DHT22;7290;50.854;4.354;2022-12-01T01:15:36;8.20;99.90
14411;DHT22;7290;50.854;4.354;2022-12-01T01:18:02;8.20;99.90
14411;DHT22;7290;50.854;4.354;2022-12-01T01:20:29;8.10;99.90
14411;DHT22;7290;50.854;4.354;2022-12-01T01:22:55;8.00;99.90
14411;DHT22;7290;50.854;4.354;2022-12-01T01:25:22;8.00;99.90
14411;DHT22;7290;50.854;4.354;2022-12-01T01:27:48;7.90;99.90
14411;DHT22;7290;50.854;4.354;2022-12-01T01:30:15;8.00;99.90
14411;DHT22;7290;50.854;4.354;2022-12-01T01:32:41;8.00;99.90
14411;DHT22;7290;50.854;4.354;2022-12-01T01:35:08;8.10;99.90
14411;DHT22;7290;50.854;4.354;2022-12-01T01:37:34;8.10;99.90
14411;DHT22;7290;50.854;4.354;2022-12-01T01:40:00;8.00;99.90
14411;DHT22;7290;50.854;4.354;2022-12-01T01:42:27;8.00;99.90
14411;DHT22;7290;50.854;4.354;2022-12-01T01:44:54;8.00;99.90
14411;DHT22;7290;50.854;4.354;2022-12-01T01:47:24;7.90;99.90
14411;DHT22;7290;50.854;4.354;2022-12-01T01:49:52;7.90;99.90
14411;DHT22;7290;50.854;4.354;2022-12-01T01:52:18;7.90;99.90
14411;DHT22;7290;50.854;4.354;2022-12-01T01:54:46;7.80;99.90
14411;DHT22;7290;50.854;4.354;2022-12-01T01:57:16;7.90;99.90
14411;DHT22;7290;50.854;4.354;2022-12-01T01:59:49;8.10;99.90
14411;DHT22;7290;50.854;4.354;2022-12-01T02:02:17;8.30;99.90
14411;DHT22;7290;50.854;4.354;2022-12-01T02:04:45;8.30;99.90
14411;DHT22;7290;50.854;4.354;2022-12-01T02:07:15;8.40;99.90
14411;DHT22;7290;50.854;4.354;2022-12-01T02:09:41;8.40;99.90
14411;DHT22;7290;50.854;4.354;2022-12-01T02:12:16;8.40;99.90
14411;DHT22;7290;50.854;4.354;2022-12-01T02:15:04;8.30;99.90
14411;DHT22;7290;50.854;4.354;2022-12-01T02:17:38;8.30;99.90
14411;DHT22;7290;50.854;4.354;2022-12-01T02:20:30;8.40;99.90
14411;DHT22;7290;50.854;4.354;2022-12-01T02:26:03;8.30;99.90
14411;DHT22;7290;50.854;4.354;2022-12-01T02:29:01;8.00;99.90
14411;DHT22;7290;50.854;4.354;2022-12-01T02:31:40;8.00;99.90
14411;DHT22;7290;50.854;4.354;2022-12-01T02:34:12;8.00;99.90
14411;DHT22;7290;50.854;4.354;2022-12-01T02:36:45;7.90;99.90
14411;DHT22;7290;50.854;4.354;2022-12-01T02:39:17;7.90;99.90
14411;DHT22;7290;50.854;4.354;2022-12-01T02:41:49;8.00;99.90
14411;DHT22;7290;50.854;4.354;2022-12-01T02:44:18;8.10;99.90
14411;DHT22;7290;50.854;4.354;2022-12-01T02:46:49;7.90;99.90
14411;DHT22;7290;50.854;4.354;2022-12-01T02:49:18;7.90;99.90
14411;DHT22;7290;50.854;4.354;2022-12-01T02:51:45;8.20;99.90
14411;DHT22;7290;50.854;4.354;2022-12-01T02:54:13;8.20;99.90
14411;DHT22;7290;50.854;4.354;2022-12-01T02:56:42;8.10;99.90
14411;DHT22;7290;50.854;4.354;2022-12-01T02:59:10;8.10;99.90
14411;DHT22;7290;50.854;4.354;2022-12-01T03:01:44;8.10;99.90
14411;DHT22;7290;50.854;4.354;2022-12-01T03:04:30;8.10;99.90
14411;DHT22;7290;50.854;4.354;2022-12-01T03:07:05;7.90;99.90
14411;DHT22;7290;50.854;4.354;2022-12-01T03:09:40;7.80;99.90
14411;DHT22;7290;50.854;4.354;2022-12-01T03:12:18;7.80;99.90
14411;DHT22;7290;50.854;4.354;2022-12-01T03:14:54;7.80;99.90
14411;DHT22;7290;50.854;4.354;2022-12-01T03:17:27;7.70;99.90
14411;DHT22;7290;50.854;4.354;2022-12-01T03:19:59;7.80;99.90
14411;DHT22;7290;50.854;4.354;2022-12-01T03:22:32;7.90;99.90
14411;DHT22;7290;50.854;4.354;2022-12-01T03:25:03;8.00;99.90
14411;DHT22;7290;50.854;4.354;2022-12-01T03:27:33;7.80;99.90
14411;DHT22;7290;50.854;4.354;2022-12-01T03:30:01;7.80;99.90
14411;DHT22;7290;50.854;4.354;2022-12-01T03:32:30;7.80;99.90
14411;DHT22;7290;50.854;4.354;2022-12-01T03:35:01;7.90;99.90
14411;DHT22;7290;50.854;4.354;2022-12-01T03:37:33;7.90;99.90
14411;DHT22;7290;50.854;4.354;2022-12-01T03:40:02;7.80;99.90
14411;DHT22;7290;50.854;4.354;2022-12-01T03:42:34;7.70;99.90
14411;DHT22;7290;50.854;4.354;2022-12-01T03:45:06;7.80;99.90
14411;DHT22;7290;50.854;4.354;2022-12-01T03:47:34;7.70;99.90
14411;DHT22;7290;50.854;4.354;2022-12-01T03:50:04;7.70;99.90
14411;DHT22;7290;50.854;4.354;2022-12-01T03:52:39;7.80;99.90
14411;DHT22;7290;50.854;4.354;2022-12-01T03:55:12;7.80;99.90
14411;DHT22;7290;50.854;4.354;2022-12-01T03:57:43;7.90;99.90
14411;DHT22;7290;50.854;4.354;2022-12-01T04:00:11;7.80;99.90
14411;DHT22;7290;50.854;4.354;2022-12-01T04:02:38;7.70;99.90
14411;DHT22;7290;50.854;4.354;2022-12-01T04:05:06;7.80;99.90
14411;DHT22;7290;50.854;4.354;2022-12-01T04:07:33;7.80;99.90
14411;DHT22;7290;50.854;4.354;2022-12-01T04:09:59;7.90;99.90
14411;DHT22;7290;50.854;4.354;2022-12-01T04:12:26;7.90;99.90
14411;DHT22;7290;50.854;4.354;2022-12-01T04:14:55;7.80;99.90
14411;DHT22;7290;50.854;4.354;2022-12-01T04:17:21;7.80;99.90
14411;DHT22;7290;50.854;4.354;2022-12-01T04:19:47;7.90;99.90
14411;DHT22;7290;50.854;4.354;2022-12-01T04:22:14;8.00;99.90
14411;DHT22;7290;50.854;4.354;2022-12-01T04:24:40;7.90;99.90
14411;DHT22;7290;50.854;4.354;2022-12-01T04:27:06;7.70;99.90
14411;DHT22;7290;50.854;4.354;2022-12-01T04:29:32;7.80;99.90
14411;DHT22;7290;50.854;4.354;2022-12-01T04:31:58;7.80;99.90
14411;DHT22;7290;50.854;4.354;2022-12-01T04:34:24;7.90;99.90
14411;DHT22;7290;50.854;4.354;2022-12-01T04:36:50;8.00;99.90
14411;DHT22;7290;50.854;4.354;2022-12-01T04:39:17;8.00;99.90
14411;DHT22;7290;50.854;4.354;2022-12-01T04:41:43;7.90;99.90
14411;DHT22;7290;50.854;4.354;2022-12-01T04:44:10;7.90;99.90
14411;DHT22;7290;50.854;4.354;2022-12-01T04:46:36;8.00;99.90
14411;DHT22;7290;50.854;4.354;2022-12-01T04:49:02;8.00;99.90
14411;DHT22;7290;50.854;4.354;2022-12-01T04:51:29;8.00;99.90
14411;DHT22;7290;50.854;4.354;2022-12-01T04:53:55;8.00;99.90
14411;DHT22;7290;50.854;4.354;2022-12-01T04:56:21;8.00;99.90
14411;DHT22;7290;50.854;4.354;2022-12-01T04:58:48;8.00;99.90
14411;DHT22;7290;50.854;4.354;2022-12-01T05:01:16;8.00;99.90
14411;DHT22;7290;50.854;4.354;2022-12-01T05:03:44;8.10;99.90
14411;DHT22;7290;50.854;4.354;2022-12-01T05:06:14;8.10;99.90
14411;DHT22;7290;50.854;4.354;2022-12-01T05:08:40;8.00;99.90
14411;DHT22;7290;50.854;4.354;2022-12-01T05:11:08;8.00;99.90
14411;DHT22;7290;50.854;4.354;2022-12-01T05:13:37;8.00;99.90
14411;DHT22;7290;50.854;4.354;2022-12-01T05:16:06;7.90;99.90
14411;DHT22;7290;50.854;4.354;2022-12-01T05:18:33;7.90;99.90
14411;DHT22;7290;50.854;4.354;2022-12-01T05:20:59;7.90;99.90
14411;DHT22;7290;50.854;4.354;2022-12-01T05:23:26;8.00;99.90
14411;DHT22;7290;50.854;4.354;2022-12-01T05:25:53;8.10;99.90
14411;DHT22;7290;50.854;4.354;2022-12-01T05:28:21;8.10;99.90
14411;DHT22;7290;50.854;4.354;2022-12-01T05:30:48;8.00;99.90
14411;DHT22;7290;50.854;4.354;2022-12-01T05:33:14;8.00;99.90
14411;DHT22;7290;50.854;4.354;2022-12-01T05:35:41;8.00;99.90
14411;DHT22;7290;50.854;4.354;2022-12-01T05:38:07;8.00;99.90
14411;DHT22;7290;50.854;4.354;2022-12-01T05:40:34;8.00;99.90
14411;DHT22;7290;50.854;4.354;2022-12-01T05:43:00;8.10;99.90
14411;DHT22;7290;50.854;4.354;2022-12-01T05:45:26;8.10;99.90
14411;DHT22;7290;50.854;4.354;2022-12-01T05:47:54;8.00;99.90
14411;DHT22;7290;50.854;4.354;2022-12-01T05:50:20;8.00;99.90
14411;DHT22;7290;50.854;4.354;2022-12-01T05:52:46;8.20;99.90
14411;DHT22;7290;50.854;4.354;2022-12-01T05:55:12;8.20;99.90
14411;DHT22;7290;50.854;4.354;2022-12-01T05:57:38;8.20;99.90
14411;DHT22;7290;50.854;4.354;2022-12-01T06:00:06;8.10;99.90
14411;DHT22;7290;50.854;4.354;2022-12-01T06:02:32;8.20;99.90
14411;DHT22;7290;50.854;4.354;2022-12-01T06:04:59;8.20;99.90
14411;DHT22;7290;50.854;4.354;2022-12-01T06:07:25;8.10;99.90
14411;DHT22;7290;50.854;4.354;2022-12-01T06:09:53;8.20;99.90
14411;DHT22;7290;50.854;4.354;2022-12-01T06:12:19;8.20;99.90
14411;DHT22;7290;50.854;4.354;2022-12-01T06:14:45;8.20;99.90
14411;DHT22;7290;50.854;4.354;2022-12-01T06:17:11;7.90;99.90
14411;DHT22;7290;50.854;4.354;2022-12-01T06:19:37;8.00;99.90
14411;DHT22;7290;50.854;4.354;2022-12-01T06:22:04;8.10;99.90
14411;DHT22;7290;50.854;4.354;2022-12-01T06:24:30;8.10;99.90
14411;DHT22;7290;50.854;4.354;2022-12-01T06:26:56;8.20;99.90
14411;DHT22;7290;50.854;4.354;2022-12-01T06:29:23;8.20;99.90
14411;DHT22;7290;50.854;4.354;2022-12-01T06:31:49;8.20;99.90
14411;DHT22;7290;50.854;4.354;2022-12-01T06:34:15;8.20;99.90
14411;DHT22;7290;50.854;4.354;2022-12-01T06:36:41;8.30;99.90
14411;DHT22;7290;50.854;4.354;2022-12-01T06:39:08;8.20;99.90
14411;DHT22;7290;50.854;4.354;2022-12-01T06:41:34;8.10;99.90
14411;DHT22;7290;50.854;4.354;2022-12-01T06:44:01;8.10;99.90
14411;DHT22;7290;50.854;4.354;2022-12-01T06:46:27;8.10;99.90
14411;DHT22;7290;50.854;4.354;2022-12-01T06:48:53;8.20;99.90
14411;DHT22;7290;50.854;4.354;2022-12-01T06:51:19;8.10;99.90
14411;DHT22;7290;50.854;4.354;2022-12-01T06:53:45;8.00;99.90
14411;DHT22;7290;50.854;4.354;2022-12-01T06:56:12;8.10;99.90
14411;DHT22;7290;50.854;4.354;2022-12-01T06:58:38;8.10;99.90
14411;DHT22;7290;50.854;4.354;2022-12-01T07:01:08;8.10;99.90
14411;DHT22;7290;50.854;4.354;2022-12-01T07:03:34;8.20;99.90
14411;DHT22;7290;50.854;4.354;2022-12-01T07:06:01;8.20;99.90
14411;DHT22;7290;50.854;4.354;2022-12-01T07:08:28;8.20;99.90
14411;DHT22;7290;50.854;4.354;2022-12-01T07:10:58;8.30;99.90
14411;DHT22;7290;50.854;4.354;2022-12-01T07:13:25;8.20;99.90
14411;DHT22;7290;50.854;4.354;2022-12-01T07:15:51;8.30;99.90
14411;DHT22;7290;50.854;4.354;2022-12-01T07:18:17;8.20;99.90
14411;DHT22;7290;50.854;4.354;2022-12-01T07:20:44;8.20;99.90
14411;DHT22;7290;50.854;4.354;2022-12-01T07:23:10;8.20;99.90
14411;DHT22;7290;50.854;4.354;2022-12-01T07:25:36;8.30;99.90
14411;DHT22;7290;50.854;4.354;2022-12-01T07:28:02;8.20;99.90
14411;DHT22;7290;50.854;4.354;2022-12-01T07:30:29;8.20;99.90
14411;DHT22;7290;50.854;4.354;2022-12-01T07:32:55;8.10;99.90
14411;DHT22;7290;50.854;4.354;2022-12-01T07:35:21;8.20;99.90
14411;DHT22;7290;50.854;4.354;2022-12-01T07:37:53;8.20;99.90
14411;DHT22;7290;50.854;4.354;2022-12-01T07:40:19;8.20;99.90
14411;DHT22;7290;50.854;4.354;2022-12-01T07:42:45;8.20;99.90
14411;DHT22;7290;50.854;4.354;2022-12-01T07:45:11;8.00;99.90
14411;DHT22;7290;50.854;4.354;2022-12-01T07:47:38;8.00;99.90
14411;DHT22;7290;50.854;4.354;2022-12-01T07:50:05;7.90;99.90
14411;DHT22;7290;50.854;4.354;2022-12-01T07:52:31;7.90;99.90
14411;DHT22;7290;50.854;4.354;2022-12-01T07:54:58;7.90;99.90
14411;DHT22;7290;50.854;4.354;2022-12-01T07:57:24;8.10;99.90
14411;DHT22;7290;50.854;4.354;2022-12-01T07:59:50;8.10;99.90
14411;DHT22;7290;50.854;4.354;2022-12-01T08:02:17;8.10;99.90
14411;DHT22;7290;50.854;4.354;2022-12-01T08:04:44;8.10;99.90
14411;DHT22;7290;50.854;4.354;2022-12-01T08:07:10;8.10;99.90
14411;DHT22;7290;50.854;4.354;2022-12-01T08:09:36;8.10;99.90
14411;DHT22;7290;50.854;4.354;2022-12-01T08:12:02;8.20;99.90
14411;DHT22;7290;50.854;4.354;2022-12-01T08:14:28;8.30;99.90
14411;DHT22;7290;50.854;4.354;2022-12-01T08:16:54;8.10;99.90
14411;DHT22;7290;50.854;4.354;2022-12-01T08:19:20;8.10;99.90
14411;DHT22;7290;50.854;4.354;2022-12-01T08:21:47;8.20;99.90
14411;DHT22;7290;50.854;4.354;2022-12-01T08:24:13;8.20;99.90
14411;DHT22;7290;50.854;4.354;2022-12-01T08:26:39;8.30;99.90
14411;DHT22;7290;50.854;4.354;2022-12-01T08:29:06;8.30;99.90
14411;DHT22;7290;50.854;4.354;2022-12-01T08:31:32;8.30;99.90
14411;DHT22;7290;50.854;4.354;2022-12-01T08:34:00;8.40;99.90
14411;DHT22;7290;50.854;4.354;2022-12-01T08:36:26;8.40;99.90
14411;DHT22;7290;50.854;4.354;2022-12-01T08:38:53;8.30;99.90
14411;DHT22;7290;50.854;4.354;2022-12-01T08:41:20;8.30;99.90
14411;DHT22;7290;50.854;4.354;2022-12-01T08:43:46;8.10;99.90
14411;DHT22;7290;50.854;4.354;2022-12-01T08:46:13;8.00;99.90
14411;DHT22;7290;50.854;4.354;2022-12-01T08:48:39;8.10;99.90
14411;DHT22;7290;50.854;4.354;2022-12-01T08:51:07;8.20;99.90
14411;DHT22;7290;50.854;4.354;2022-12-01T08:53:35;8.10;99.90
14411;DHT22;7290;50.854;4.354;2022-12-01T08:56:04;7.80;99.90
14411;DHT22;7290;50.854;4.354;2022-12-01T08:58:30;7.90;99.90
14411;DHT22;7290;50.854;4.354;2022-12-01T09:01:03;8.00;99.90
14411;DHT22;7290;50.854;4.354;2022-12-01T09:03:30;8.20;99.90
14411;DHT22;7290;50.854;4.354;2022-12-01T09:06:01;8.20;99.90
14411;DHT22;7290;50.854;4.354;2022-12-01T09:08:28;8.20;99.90
14411;DHT22;7290;50.854;4.354;2022-12-01T09:10:57;8.10;99.90
14411;DHT22;7290;50.854;4.354;2022-12-01T09:13:24;8.10;99.90
14411;DHT22;7290;50.854;4.354;2022-12-01T09:15:54;8.10;99.90
14411;DHT22;7290;50.854;4.354;2022-12-01T09:18:21;8.20;99.90
14411;DHT22;7290;50.854;4.354;2022-12-01T09:20:47;8.20;99.90
14411;DHT22;7290;50.854;4.354;2022-12-01T09:23:13;8.20;99.90
14411;DHT22;7290;50.854;4.354;2022-12-01T09:25:39;8.20;99.90
14411;DHT22;7290;50.854;4.354;2022-12-01T09:28:05;8.10;99.90
14411;DHT22;7290;50.854;4.354;2022-12-01T09:30:33;8.30;99.90
14411;DHT22;7290;50.854;4.354;2022-12-01T09:33:00;8.40;99.90
14411;DHT22;7290;50.854;4.354;2022-12-01T09:35:28;8.40;99.90
14411;DHT22;7290;50.854;4.354;2022-12-01T09:37:55;8.50;99.90
14411;DHT22;7290;50.854;4.354;2022-12-01T09:40:30;8.50;99.90
14411;DHT22;7290;50.854;4.354;2022-12-01T09:42:59;8.60;99.90
14411;DHT22;7290;50.854;4.354;2022-12-01T09:45:29;8.50;99.90
14411;DHT22;7290;50.854;4.354;2022-12-01T09:47:59;8.50;99.90
14411;DHT22;7290;50.854;4.354;2022-12-01T09:50:26;8.50;99.90
14411;DHT22;7290;50.854;4.354;2022-12-01T09:52:57;8.40;99.90
14411;DHT22;7290;50.854;4.354;2022-12-01T09:55:25;8.40;99.90
14411;DHT22;7290;50.854;4.354;2022-12-01T09:57:52;8.50;99.90
14411;DHT22;7290;50.854;4.354;2022-12-01T10:00:21;8.50;99.90
14411;DHT22;7290;50.854;4.354;2022-12-01T10:02:50;8.40;99.90
14411;DHT22;7290;50.854;4.354;2022-12-01T10:05:20;8.60;99.90
14411;DHT22;7290;50.854;4.354;2022-12-01T10:07:48;8.40;99.90
14411;DHT22;7290;50.854;4.354;2022-12-01T10:10:19;8.60;99.90
14411;DHT22;7290;50.854;4.354;2022-12-01T10:12:47;8.70;99.90
14411;DHT22;7290;50.854;4.354;2022-12-01T10:15:20;8.80;99.90
14411;DHT22;7290;50.854;4.354;2022-12-01T10:18:02;8.70;99.90
14411;DHT22;7290;50.854;4.354;2022-12-01T10:20:34;8.80;99.90
14411;DHT22;7290;50.854;4.354;2022-12-01T10:23:17;8.80;99.90
14411;DHT22;7290;50.854;4.354;2022-12-01T10:25:53;8.80;99.90
14411;DHT22;7290;50.854;4.354;2022-12-01T10:28:44;8.60;99.90
14411;DHT22;7290;50.854;4.354;2022-12-01T10:31:27;8.50;99.90
14411;DHT22;7290;50.854;4.354;2022-12-01T10:34:00;8.70;99.90
14411;DHT22;7290;50.854;4.354;2022-12-01T10:36:28;8.80;99.90
14411;DHT22;7290;50.854;4.354;2022-12-01T10:38:55;8.80;99.90
14411;DHT22;7290;50.854;4.354;2022-12-01T10:41:23;8.80;99.90
14411;DHT22;7290;50.854;4.354;2022-12-01T10:43:53;8.90;99.90
14411;DHT22;7290;50.854;4.354;2022-12-01T10:46:24;8.90;99.90
14411;DHT22;7290;50.854;4.354;2022-12-01T10:48:54;8.90;99.90
14411;DHT22;7290;50.854;4.354;2022-12-01T10:51:20;8.50;99.90
14411;DHT22;7290;50.854;4.354;2022-12-01T10:53:48;8.40;99.90
14411;DHT22;7290;50.854;4.354;2022-12-01T10:56:17;8.50;99.90
14411;DHT22;7290;50.854;4.354;2022-12-01T10:58:46;8.60;99.90
14411;DHT22;7290;50.854;4.354;2022-12-01T11:01:18;8.70;99.90
14411;DHT22;7290;50.854;4.354;2022-12-01T11:03:50;8.90;99.90
14411;DHT22;7290;50.854;4.354;2022-12-01T11:06:21;8.90;99.90
14411;DHT22;7290;50.854;4.354;2022-12-01T11:08:52;8.90;99.90
14411;DHT22;7290;50.854;4.354;2022-12-01T11:11:27;8.70;99.90
14411;DHT22;7290;50.854;4.354;2022-12-01T11:13:57;8.80;99.90
14411;DHT22;7290;50.854;4.354;2022-12-01T11:16:38;8.90;99.90
14411;DHT22;7290;50.854;4.354;2022-12-01T11:19:16;9.00;99.90
14411;DHT22;7290;50.854;4.354;2022-12-01T11:21:46;9.20;99.90
14411;DHT22;7290;50.854;4.354;2022-12-01T11:27:01;9.20;99.90
14411;DHT22;7290;50.854;4.354;2022-12-01T11:29:31;9.30;99.90
14411;DHT22;7290;50.854;4.354;2022-12-01T11:32:01;9.40;99.90
14411;DHT22;7290;50.854;4.354;2022-12-01T11:34:31;9.20;99.90
14411;DHT22;7290;50.854;4.354;2022-12-01T11:37:01;9.00;99.90
14411;DHT22;7290;50.854;4.354;2022-12-01T11:39:30;8.90;99.90
14411;DHT22;7290;50.854;4.354;2022-12-01T11:41:58;8.80;99.90
14411;DHT22;7290;50.854;4.354;2022-12-01T11:44:25;8.60;99.90
14411;DHT22;7290;50.854;4.354;2022-12-01T11:46:53;8.80;99.90
14411;DHT22;7290;50.854;4.354;2022-12-01T11:49:22;9.00;99.90
14411;DHT22;7290;50.854;4.354;2022-12-01T11:51:49;9.10;99.90
14411;DHT22;7290;50.854;4.354;2022-12-01T11:54:16;9.20;99.90
14411;DHT22;7290;50.854;4.354;2022-12-01T11:56:45;9.20;99.90
14411;DHT22;7290;50.854;4.354;2022-12-01T11:59:14;9.30;99.90
14411;DHT22;7290;50.854;4.354;2022-12-01T12:01:59;9.20;99.90
14411;DHT22;7290;50.854;4.354;2022-12-01T12:04:47;8.90;99.90
14411;DHT22;7290;50.854;4.354;2022-12-01T12:07:22;9.00;99.90
14411;DHT22;7290;50.854;4.354;2022-12-01T12:10:02;9.00;99.90
14411;DHT22;7290;50.854;4.354;2022-12-01T12:12:46;8.90;99.90
14411;DHT22;7290;50.854;4.354;2022-12-01T12:15:21;9.00;99.90
14411;DHT22;7290;50.854;4.354;2022-12-01T12:18:04;9.10;99.90
14411;DHT22;7290;50.854;4.354;2022-12-01T12:20:43;9.20;99.90
14411;DHT22;7290;50.854;4.354;2022-12-01T12:23:24;9.30;99.90
14411;DHT22;7290;50.854;4.354;2022-12-01T12:26:01;9.30;99.90
14411;DHT22;7290;50.854;4.354;2022-12-01T12:28:38;9.30;99.90
14411;DHT22;7290;50.854;4.354;2022-12-01T12:31:13;9.30;99.90
14411;DHT22;7290;50.854;4.354;2022-12-01T12:33:57;9.30;99.90
14411;DHT22;7290;50.854;4.354;2022-12-01T12:36:32;9.50;99.90
14411;DHT22;7290;50.854;4.354;2022-12-01T12:39:10;9.40;99.90
14411;DHT22;7290;50.854;4.354;2022-12-01T12:41:44;9.40;99.90
14411;DHT22;7290;50.854;4.354;2022-12-01T12:44:39;9.40;99.90
14411;DHT22;7290;50.854;4.354;2022-12-01T12:47:17;9.50;99.90
14411;DHT22;7290;50.854;4.354;2022-12-01T12:49:51;9.30;99.90
14411;DHT22;7290;50.854;4.354;2022-12-01T12:52:24;9.30;99.90
14411;DHT22;7290;50.854;4.354;2022-12-01T12:54:54;9.30;99.90
14411;DHT22;7290;50.854;4.354;2022-12-01T12:57:26;9.30;99.90
14411;DHT22;7290;50.854;4.354;2022-12-01T12:59:57;9.20;99.90
14411;DHT22;7290;50.854;4.354;2022-12-01T13:02:30;9.30;99.90
14411;DHT22;7290;50.854;4.354;2022-12-01T13:05:02;9.40;99.90
14411;DHT22;7290;50.854;4.354;2022-12-01T13:07:34;9.40;99.90
14411;DHT22;7290;50.854;4.354;2022-12-01T13:10:08;9.50;99.90
14411;DHT22;7290;50.854;4.354;2022-12-01T13:12:39;9.60;99.90
14411;DHT22;7290;50.854;4.354;2022-12-01T13:15:13;9.60;99.90
14411;DHT22;7290;50.854;4.354;2022-12-01T13:17:41;9.40;99.90
14411;DHT22;7290;50.854;4.354;2022-12-01T13:20:13;9.50;99.90
14411;DHT22;7290;50.854;4.354;2022-12-01T13:22:39;9.50;99.90
14411;DHT22;7290;50.854;4.354;2022-12-01T13:25:07;9.40;99.90
14411;DHT22;7290;50.854;4.354;2022-12-01T13:27:34;9.40;99.90
14411;DHT22;7290;50.854;4.354;2022-12-01T13:30:04;9.40;99.90
14411;DHT22;7290;50.854;4.354;2022-12-01T13:32:34;9.30;99.90
14411;DHT22;7290;50.854;4.354;2022-12-01T13:35:03;9.30;99.90
14411;DHT22;7290;50.854;4.354;2022-12-01T13:37:32;9.20;99.90
14411;DHT22;7290;50.854;4.354;2022-12-01T13:40:08;9.00;99.90
14411;DHT22;7290;50.854;4.354;2022-12-01T13:42:35;9.10;99.90
14411;DHT22;7290;50.854;4.354;2022-12-01T13:45:09;9.20;99.90
14411;DHT22;7290;50.854;4.354;2022-12-01T13:47:48;9.10;99.90
14411;DHT22;7290;50.854;4.354;2022-12-01T13:50:52;9.00;99.90
14411;DHT22;7290;50.854;4.354;2022-12-01T13:53:28;9.00;99.90
14411;DHT22;7290;50.854;4.354;2022-12-01T13:55:57;9.30;99.90
14411;DHT22;7290;50.854;4.354;2022-12-01T13:58:39;9.30;99.90
14411;DHT22;7290;50.854;4.354;2022-12-01T14:01:41;9.30;99.90
14411;DHT22;7290;50.854;4.354;2022-12-01T14:04:26;9.40;99.90
14411;DHT22;7290;50.854;4.354;2022-12-01T14:07:21;9.30;99.90
14411;DHT22;7290;50.854;4.354;2022-12-01T14:09:50;9.20;99.90
14411;DHT22;7290;50.854;4.354;2022-12-01T14:12:20;9.00;99.90
14411;DHT22;7290;50.854;4.354;2022-12-01T14:14:49;8.90;99.90
14411;DHT22;7290;50.854;4.354;2022-12-01T14:17:24;9.00;99.90
14411;DHT22;7290;50.854;4.354;2022-12-01T14:19:52;9.10;99.90
14411;DHT22;7290;50.854;4.354;2022-12-01T14:22:31;9.10;99.90
14411;DHT22;7290;50.854;4.354;2022-12-01T14:24:58;9.10;99.90
14411;DHT22;7290;50.854;4.354;2022-12-01T14:27:34;9.00;99.90
14411;DHT22;7290;50.854;4.354;2022-12-01T14:35:59;9.20;99.90
14411;DHT22;7290;50.854;4.354;2022-12-01T14:38:27;9.30;99.90
14411;DHT22;7290;50.854;4.354;2022-12-01T14:40:54;9.30;99.90
14411;DHT22;7290;50.854;4.354;2022-12-01T14:43:20;9.30;99.90
14411;DHT22;7290;50.854;4.354;2022-12-01T14:46:07;9.30;99.90
14411;DHT22;7290;50.854;4.354;2022-12-01T14:48:37;9.10;99.90
14411;DHT22;7290;50.854;4.354;2022-12-01T14:51:17;9.10;99.90
14411;DHT22;7290;50.854;4.354;2022-12-01T14:53:47;9.10;99.90
14411;DHT22;7290;50.854;4.354;2022-12-01T14:56:17;9.10;99.90
14411;DHT22;7290;50.854;4.354;2022-12-01T14:58:52;9.20;99.90
14411;DHT22;7290;50.854;4.354;2022-12-01T15:01:20;9.10;99.90
14411;DHT22;7290;50.854;4.354;2022-12-01T15:03:48;9.10;99.90
14411;DHT22;7290;50.854;4.354;2022-12-01T15:06:18;9.00;99.90
14411;DHT22;7290;50.854;4.354;2022-12-01T15:08:45;9.00;99.90
14411;DHT22;7290;50.854;4.354;2022-12-01T15:11:19;9.00;99.90
14411;DHT22;7290;50.854;4.354;2022-12-01T15:13:48;9.00;99.90
14411;DHT22;7290;50.854;4.354;2022-12-01T15:16:17;8.90;99.90
14411;DHT22;7290;50.854;4.354;2022-12-01T15:18:44;8.80;99.90
14411;DHT22;7290;50.854;4.354;2022-12-01T15:21:12;8.70;99.90
14411;DHT22;7290;50.854;4.354;2022-12-01T15:23:52;8.80;99.90
14411;DHT22;7290;50.854;4.354;2022-12-01T15:26:20;8.90;99.90
14411;DHT22;7290;50.854;4.354;2022-12-01T15:28:47;9.00;99.90
14411;DHT22;7290;50.854;4.354;2022-12-01T15:31:13;9.00;99.90
14411;DHT22;7290;50.854;4.354;2022-12-01T15:33:45;9.10;99.90
14411;DHT22;7290;50.854;4.354;2022-12-01T15:36:12;9.00;99.90
14411;DHT22;7290;50.854;4.354;2022-12-01T15:38:40;9.00;99.90
14411;DHT22;7290;50.854;4.354;2022-12-01T15:41:15;9.10;99.90
14411;DHT22;7290;50.854;4.354;2022-12-01T15:43:41;9.10;99.90
14411;DHT22;7290;50.854;4.354;2022-12-01T15:46:13;9.00;99.90
14411;DHT22;7290;50.854;4.354;2022-12-01T15:48:39;8.90;99.90
14411;DHT22;7290;50.854;4.354;2022-12-01T15:51:12;9.00;99.90
14411;DHT22;7290;50.854;4.354;2022-12-01T15:53:45;9.00;99.90
14411;DHT22;7290;50.854;4.354;2022-12-01T15:56:13;9.00;99.90
14411;DHT22;7290;50.854;4.354;2022-12-01T15:58:41;9.10;99.90
14411;DHT22;7290;50.854;4.354;2022-12-01T16:01:10;9.00;99.90
14411;DHT22;7290;50.854;4.354;2022-12-01T16:03:51;8.90;99.90
14411;DHT22;7290;50.854;4.354;2022-12-01T16:06:19;8.90;99.90
14411;DHT22;7290;50.854;4.354;2022-12-01T16:08:52;8.90;99.90
14411;DHT22;7290;50.854;4.354;2022-12-01T16:11:19;8.90;99.90
14411;DHT22;7290;50.854;4.354;2022-12-01T16:13:48;8.80;99.90
14411;DHT22;7290;50.854;4.354;2022-12-01T16:16:36;8.90;99.90
14411;DHT22;7290;50.854;4.354;2022-12-01T16:19:21;8.90;99.90
14411;DHT22;7290;50.854;4.354;2022-12-01T16:21:48;9.00;99.90
14411;DHT22;7290;50.854;4.354;2022-12-01T16:24:17;9.00;99.90
14411;DHT22;7290;50.854;4.354;2022-12-01T16:26:50;8.90;99.90
14411;DHT22;7290;50.854;4.354;2022-12-01T16:29:18;9.00;99.90
14411;DHT22;7290;50.854;4.354;2022-12-01T16:31:45;9.00;99.90